sensor_id;sensor_type;location;lat;lon;timestamp;pressure;altitude;pressure_sealevel;temperature;humidity
77877;BME280;67251;50.844;7.978;2023-04-03T00:01:18;99961.28;;;-0.62;84.67
77877;BME280;67251;50.844;7.978;2023-04-03T00:03:43;99958.16;;;-0.55;84.96
77877;BME280;67251;50.844;7.978;2023-04-03T00:06:10;99963.22;;;-0.52;84.81
77877;BME280;67251;50.844;7.978;2023-04-03T00:08:38;99958.56;;;-0.48;84.57
77877;BME280;67251;50.844;7.978;2023-04-03T00:11:04;99959.75;;;-0.39;84.11
77877;BME280;67251;50.844;7.978;2023-04-03T00:13:32;99958.59;;;-0.35;83.70
77877;BME280;67251;50.844;7.978;2023-04-03T00:15:58;99957.44;;;-0.31;83.49
77877;BME280;67251;50.844;7.978;2023-04-03T00:18:23;99954.81;;;-0.31;83.50
77877;BME280;67251;50.844;7.978;2023-04-03T00:20:49;99960.06;;;-0.31;83.71
77877;BME280;67251;50.844;7.978;2023-04-03T00:23:14;99965.22;;;-0.30;83.72
77877;BME280;67251;50.844;7.978;2023-04-03T00:25:40;99963.34;;;-0.28;83.68
77877;BME280;67251;50.844;7.978;2023-04-03T00:28:05;99967.34;;;-0.22;83.38
77877;BME280;67251;50.844;7.978;2023-04-03T00:30:32;99969.00;;;-0.21;83.23
77877;BME280;67251;50.844;7.978;2023-04-03T00:32:57;99968.81;;;-0.18;82.84
77877;BME280;67251;50.844;7.978;2023-04-03T00:35:24;99973.84;;;-0.15;82.08
77877;BME280;67251;50.844;7.978;2023-04-03T00:37:54;99962.41;;;-0.14;82.43
77877;BME280;67251;50.844;7.978;2023-04-03T00:40:23;99960.69;;;-0.15;82.81
77877;BME280;67251;50.844;7.978;2023-04-03T00:42:53;99962.59;;;-0.17;82.65
77877;BME280;67251;50.844;7.978;2023-04-03T00:45:31;99960.69;;;-0.15;82.64
77877;BME280;67251;50.844;7.978;2023-04-03T00:47:57;99964.91;;;-0.12;82.93
77877;BME280;67251;50.844;7.978;2023-04-03T00:50:26;99959.53;;;-0.11;82.55
77877;BME280;67251;50.844;7.978;2023-04-03T00:52:53;99960.50;;;-0.12;82.62
77877;BME280;67251;50.844;7.978;2023-04-03T00:55:19;99956.06;;;-0.11;82.22
77877;BME280;67251;50.844;7.978;2023-04-03T00:57:45;99954.28;;;-0.11;82.26
77877;BME280;67251;50.844;7.978;2023-04-03T01:00:14;99959.13;;;-0.05;82.51
77877;BME280;67251;50.844;7.978;2023-04-03T01:02:41;99962.81;;;-0.07;82.86
77877;BME280;67251;50.844;7.978;2023-04-03T01:05:07;99963.75;;;-0.08;82.65
77877;BME280;67251;50.844;7.978;2023-04-03T01:07:34;99967.34;;;-0.09;82.48
77877;BME280;67251;50.844;7.978;2023-04-03T01:10:05;99965.56;;;-0.09;82.64
77877;BME280;67251;50.844;7.978;2023-04-03T01:12:36;99958.81;;;-0.13;82.68
77877;BME280;67251;50.844;7.978;2023-04-03T01:15:11;99963.84;;;-0.10;82.68
77877;BME280;67251;50.844;7.978;2023-04-03T01:17:40;99965.31;;;-0.06;82.09
77877;BME280;67251;50.844;7.978;2023-04-03T01:25:44;99960.69;;;-0.15;82.93
77877;BME280;67251;50.844;7.978;2023-04-03T01:28:31;99953.63;;;-0.14;82.66
77877;BME280;67251;50.844;7.978;2023-04-03T01:31:23;99956.91;;;-0.11;82.77
77877;BME280;67251;50.844;7.978;2023-04-03T01:33:50;99960.38;;;-0.10;82.85
77877;BME280;67251;50.844;7.978;2023-04-03T01:36:21;99954.41;;;-0.12;82.89
77877;BME280;67251;50.844;7.978;2023-04-03T01:38:47;99957.03;;;-0.12;82.84
77877;BME280;67251;50.844;7.978;2023-04-03T01:41:13;99956.38;;;-0.16;82.83
77877;BME280;67251;50.844;7.978;2023-04-03T01:43:38;99957.13;;;-0.14;82.63
77877;BME280;67251;50.844;7.978;2023-04-03T01:46:04;99960.59;;;-0.13;82.86
77877;BME280;67251;50.844;7.978;2023-04-03T01:48:29;99959.03;;;-0.16;82.59
77877;BME280;67251;50.844;7.978;2023-04-03T01:54:31;99962.91;;;-0.21;82.66
77877;BME280;67251;50.844;7.978;2023-04-03T01:56:57;99965.03;;;-0.27;82.54
77877;BME280;67251;50.844;7.978;2023-04-03T01:59:22;99967.53;;;-0.38;82.69
77877;BME280;67251;50.844;7.978;2023-04-03T02:01:48;99975.94;;;-0.45;83.12
77877;BME280;67251;50.844;7.978;2023-04-03T02:04:13;99969.84;;;-0.46;83.24
77877;BME280;67251;50.844;7.978;2023-04-03T02:06:38;99969.81;;;-0.59;83.51
77877;BME280;67251;50.844;7.978;2023-04-03T02:09:04;99964.94;;;-0.78;83.82
77877;BME280;67251;50.844;7.978;2023-04-03T02:11:30;99966.06;;;-0.94;84.17
77877;BME280;67251;50.844;7.978;2023-04-03T02:13:56;99964.34;;;-1.08;84.65
77877;BME280;67251;50.844;7.978;2023-04-03T02:16:21;99966.16;;;-1.23;85.30
77877;BME280;67251;50.844;7.978;2023-04-03T02:18:47;99960.50;;;-1.44;85.61
77877;BME280;67251;50.844;7.978;2023-04-03T02:21:12;99965.59;;;-1.55;86.26
77877;BME280;67251;50.844;7.978;2023-04-03T02:23:38;99974.06;;;-1.64;86.66
77877;BME280;67251;50.844;7.978;2023-04-03T02:26:08;99980.34;;;-1.81;86.96
77877;BME280;67251;50.844;7.978;2023-04-03T02:28:34;99977.16;;;-1.86;87.00
77877;BME280;67251;50.844;7.978;2023-04-03T02:31:00;99971.81;;;-1.99;87.02
77877;BME280;67251;50.844;7.978;2023-04-03T02:33:26;99971.53;;;-2.09;87.23
77877;BME280;67251;50.844;7.978;2023-04-03T02:35:55;99976.22;;;-2.14;87.34
77877;BME280;67251;50.844;7.978;2023-04-03T02:38:22;99975.00;;;-2.22;87.21
77877;BME280;67251;50.844;7.978;2023-04-03T02:40:47;99977.16;;;-2.29;87.52
77877;BME280;67251;50.844;7.978;2023-04-03T02:43:13;99977.59;;;-2.37;87.56
77877;BME280;67251;50.844;7.978;2023-04-03T02:45:38;99979.19;;;-2.48;87.61
77877;BME280;67251;50.844;7.978;2023-04-03T02:48:04;99979.34;;;-2.51;88.45
77877;BME280;67251;50.844;7.978;2023-04-03T02:50:29;99980.03;;;-2.48;87.80
77877;BME280;67251;50.844;7.978;2023-04-03T02:52:55;99982.91;;;-2.52;87.47
77877;BME280;67251;50.844;7.978;2023-04-03T02:55:20;99976.53;;;-2.63;87.71
77877;BME280;67251;50.844;7.978;2023-04-03T02:57:45;99986.59;;;-2.71;88.19
77877;BME280;67251;50.844;7.978;2023-04-03T03:00:11;99980.03;;;-2.78;88.39
77877;BME280;67251;50.844;7.978;2023-04-03T03:02:37;99980.16;;;-2.65;88.65
77877;BME280;67251;50.844;7.978;2023-04-03T03:05:02;99980.06;;;-2.64;88.11
77877;BME280;67251;50.844;7.978;2023-04-03T03:07:28;99990.38;;;-2.61;88.06
77877;BME280;67251;50.844;7.978;2023-04-03T03:09:53;99990.16;;;-2.72;88.06
77877;BME280;67251;50.844;7.978;2023-04-03T03:12:19;99990.88;;;-2.84;88.30
77877;BME280;67251;50.844;7.978;2023-04-03T03:14:47;99988.03;;;-2.95;88.66
77877;BME280;67251;50.844;7.978;2023-04-03T03:17:13;99997.34;;;-3.05;88.85
77877;BME280;67251;50.844;7.978;2023-04-03T03:19:38;99993.00;;;-3.06;89.19
77877;BME280;67251;50.844;7.978;2023-04-03T03:22:04;99994.22;;;-3.12;89.33
77877;BME280;67251;50.844;7.978;2023-04-03T03:24:29;99997.75;;;-3.13;89.26
77877;BME280;67251;50.844;7.978;2023-04-03T03:26:55;99998.44;;;-3.10;89.57
77877;BME280;67251;50.844;7.978;2023-04-03T03:29:20;99994.03;;;-3.09;89.48
77877;BME280;67251;50.844;7.978;2023-04-03T03:31:46;100004.00;;;-3.16;89.55
77877;BME280;67251;50.844;7.978;2023-04-03T03:34:11;99998.00;;;-3.02;89.77
77877;BME280;67251;50.844;7.978;2023-04-03T03:36:37;100003.06;;;-2.99;89.55
77877;BME280;67251;50.844;7.978;2023-04-03T03:39:02;99997.59;;;-3.10;89.78
77877;BME280;67251;50.844;7.978;2023-04-03T03:41:28;100002.56;;;-3.21;89.81
77877;BME280;67251;50.844;7.978;2023-04-03T03:43:53;99998.53;;;-3.27;89.98
77877;BME280;67251;50.844;7.978;2023-04-03T03:46:18;100004.03;;;-3.31;90.06
77877;BME280;67251;50.844;7.978;2023-04-03T03:48:44;100006.16;;;-3.38;90.24
77877;BME280;67251;50.844;7.978;2023-04-03T03:51:10;100009.31;;;-3.49;90.49
77877;BME280;67251;50.844;7.978;2023-04-03T03:53:35;100011.78;;;-3.62;90.70
77877;BME280;67251;50.844;7.978;2023-04-03T03:56:01;100011.78;;;-3.62;91.12
77877;BME280;67251;50.844;7.978;2023-04-03T03:58:26;100017.59;;;-3.41;91.37
77877;BME280;67251;50.844;7.978;2023-04-03T04:00:51;100014.06;;;-3.40;90.79
77877;BME280;67251;50.844;7.978;2023-04-03T04:03:17;100025.22;;;-3.52;90.96
77877;BME280;67251;50.844;7.978;2023-04-03T04:05:43;100018.69;;;-3.61;91.13
77877;BME280;67251;50.844;7.978;2023-04-03T04:08:08;100023.78;;;-3.57;91.46
77877;BME280;67251;50.844;7.978;2023-04-03T04:10:34;100016.94;;;-3.60;91.60
77877;BME280;67251;50.844;7.978;2023-04-03T04:13:00;100023.50;;;-3.69;91.50
77877;BME280;67251;50.844;7.978;2023-04-03T04:15:26;100027.88;;;-3.69;91.59
77877;BME280;67251;50.844;7.978;2023-04-03T04:17:52;100017.75;;;-3.75;91.77
77877;BME280;67251;50.844;7.978;2023-04-03T04:20:18;100024.44;;;-3.54;92.11
77877;BME280;67251;50.844;7.978;2023-04-03T04:22:43;100023.41;;;-3.67;91.69
77877;BME280;67251;50.844;7.978;2023-04-03T04:25:09;100028.59;;;-3.83;91.87
77877;BME280;67251;50.844;7.978;2023-04-03T04:27:35;100023.34;;;-3.99;91.96
77877;BME280;67251;50.844;7.978;2023-04-03T04:30:03;100028.41;;;-3.96;92.46
77877;BME280;67251;50.844;7.978;2023-04-03T04:32:28;100021.84;;;-3.87;92.44
77877;BME280;67251;50.844;7.978;2023-04-03T04:34:54;100030.53;;;-3.87;92.84
77877;BME280;67251;50.844;7.978;2023-04-03T04:37:19;100021.34;;;-3.94;92.60
77877;BME280;67251;50.844;7.978;2023-04-03T04:39:46;100029.56;;;-4.01;92.31
77877;BME280;67251;50.844;7.978;2023-04-03T04:42:11;100027.16;;;-3.89;92.73
77877;BME280;67251;50.844;7.978;2023-04-03T04:44:38;100023.38;;;-3.83;92.63
77877;BME280;67251;50.844;7.978;2023-04-03T04:47:04;100022.28;;;-3.79;92.49
77877;BME280;67251;50.844;7.978;2023-04-03T04:49:29;100021.97;;;-3.73;92.38
77877;BME280;67251;50.844;7.978;2023-04-03T04:51:55;100022.38;;;-3.80;92.32
77877;BME280;67251;50.844;7.978;2023-04-03T04:54:20;100029.53;;;-3.84;92.44
77877;BME280;67251;50.844;7.978;2023-04-03T04:56:46;100037.63;;;-3.89;92.43
77877;BME280;67251;50.844;7.978;2023-04-03T04:59:12;100030.50;;;-4.02;92.34
77877;BME280;67251;50.844;7.978;2023-04-03T05:01:37;100039.50;;;-4.08;92.57
77877;BME280;67251;50.844;7.978;2023-04-03T05:04:03;100045.72;;;-4.11;92.70
77877;BME280;67251;50.844;7.978;2023-04-03T05:06:28;100041.66;;;-4.16;92.67
77877;BME280;67251;50.844;7.978;2023-04-03T05:08:55;100049.59;;;-4.18;92.91
77877;BME280;67251;50.844;7.978;2023-04-03T05:11:21;100047.75;;;-4.16;92.79
77877;BME280;67251;50.844;7.978;2023-04-03T05:13:46;100047.91;;;-4.19;92.62
77877;BME280;67251;50.844;7.978;2023-04-03T05:16:12;100049.50;;;-4.16;93.02
77877;BME280;67251;50.844;7.978;2023-04-03T05:18:37;100058.03;;;-4.13;92.75
77877;BME280;67251;50.844;7.978;2023-04-03T05:21:03;100051.78;;;-4.10;93.05
77877;BME280;67251;50.844;7.978;2023-04-03T05:23:28;100056.34;;;-4.14;92.81
77877;BME280;67251;50.844;7.978;2023-04-03T05:25:54;100058.03;;;-4.13;92.75
77877;BME280;67251;50.844;7.978;2023-04-03T05:28:19;100061.13;;;-4.04;93.29
77877;BME280;67251;50.844;7.978;2023-04-03T05:30:44;100055.72;;;-4.01;93.01
77877;BME280;67251;50.844;7.978;2023-04-03T05:33:10;100057.56;;;-4.03;93.10
77877;BME280;67251;50.844;7.978;2023-04-03T05:35:37;100056.28;;;-4.12;92.94
77877;BME280;67251;50.844;7.978;2023-04-03T05:38:06;100058.97;;;-4.14;93.23
77877;BME280;67251;50.844;7.978;2023-04-03T05:40:32;100066.63;;;-4.11;93.07
77877;BME280;67251;50.844;7.978;2023-04-03T05:42:57;100063.09;;;-4.09;93.27
77877;BME280;67251;50.844;7.978;2023-04-03T05:45:22;100070.31;;;-4.15;93.05
77877;BME280;67251;50.844;7.978;2023-04-03T05:47:48;100071.56;;;-4.04;93.10
77877;BME280;67251;50.844;7.978;2023-04-03T05:50:14;100074.84;;;-4.01;93.06
77877;BME280;67251;50.844;7.978;2023-04-03T05:52:42;100086.75;;;-3.78;92.86
77877;BME280;67251;50.844;7.978;2023-04-03T05:55:09;100091.28;;;-3.48;91.85
77877;BME280;67251;50.844;7.978;2023-04-03T05:57:35;100087.84;;;-3.33;90.54
77877;BME280;67251;50.844;7.978;2023-04-03T06:00:00;100094.28;;;-3.23;89.81
77877;BME280;67251;50.844;7.978;2023-04-03T06:02:26;100087.16;;;-3.21;89.16
77877;BME280;67251;50.844;7.978;2023-04-03T06:04:52;100081.34;;;-2.94;86.45
77877;BME280;67251;50.844;7.978;2023-04-03T06:07:20;100087.41;;;-2.78;85.62
77877;BME280;67251;50.844;7.978;2023-04-03T06:09:47;100081.97;;;-2.59;84.71
77877;BME280;67251;50.844;7.978;2023-04-03T06:12:12;100090.66;;;-2.43;83.58
77877;BME280;67251;50.844;7.978;2023-04-03T06:14:37;100082.28;;;-2.34;83.30
77877;BME280;67251;50.844;7.978;2023-04-03T06:17:03;100090.44;;;-2.24;81.90
77877;BME280;67251;50.844;7.978;2023-04-03T06:19:29;100092.16;;;-2.09;81.52
77877;BME280;67251;50.844;7.978;2023-04-03T06:21:55;100089.38;;;-2.06;81.85
77877;BME280;67251;50.844;7.978;2023-04-03T06:24:21;100091.44;;;-1.96;81.38
77877;BME280;67251;50.844;7.978;2023-04-03T06:26:49;100095.59;;;-1.92;80.84
77877;BME280;67251;50.844;7.978;2023-04-03T06:29:16;100102.25;;;-1.87;80.80
77877;BME280;67251;50.844;7.978;2023-04-03T06:31:42;100099.06;;;-1.77;80.75
77877;BME280;67251;50.844;7.978;2023-04-03T06:34:07;100100.47;;;-1.72;80.72
77877;BME280;67251;50.844;7.978;2023-04-03T06:36:33;100112.09;;;-1.62;79.92
77877;BME280;67251;50.844;7.978;2023-04-03T06:38:59;100114.63;;;-1.46;79.11
77877;BME280;67251;50.844;7.978;2023-04-03T06:41:25;100107.50;;;-1.30;78.63
77877;BME280;67251;50.844;7.978;2023-04-03T06:43:51;100112.00;;;-1.17;77.83
77877;BME280;67251;50.844;7.978;2023-04-03T06:46:18;100114.97;;;-1.09;76.88
77877;BME280;67251;50.844;7.978;2023-04-03T06:48:44;100115.34;;;-1.01;76.00
77877;BME280;67251;50.844;7.978;2023-04-03T06:51:24;100118.25;;;-0.91;75.60
77877;BME280;67251;50.844;7.978;2023-04-03T06:53:52;100116.16;;;-0.86;76.10
77877;BME280;67251;50.844;7.978;2023-04-03T06:56:19;100127.19;;;-0.67;75.35
77877;BME280;67251;50.844;7.978;2023-04-03T06:58:45;100122.38;;;-0.33;73.82
77877;BME280;67251;50.844;7.978;2023-04-03T07:01:12;100115.94;;;2.98;64.63
77877;BME280;67251;50.844;7.978;2023-04-03T07:03:39;100097.84;;;6.59;53.01
77877;BME280;67251;50.844;7.978;2023-04-03T07:06:06;100093.94;;;9.12;45.48
77877;BME280;67251;50.844;7.978;2023-04-03T07:08:32;100093.13;;;10.19;42.09
77877;BME280;67251;50.844;7.978;2023-04-03T07:10:58;100100.56;;;10.81;39.97
77877;BME280;67251;50.844;7.978;2023-04-03T07:13:24;100105.19;;;12.87;36.91
77877;BME280;67251;50.844;7.978;2023-04-03T07:15:49;100097.56;;;13.35;34.32
77877;BME280;67251;50.844;7.978;2023-04-03T07:18:15;100111.13;;;12.97;35.06
77877;BME280;67251;50.844;7.978;2023-04-03T07:20:42;100107.75;;;13.39;33.96
77877;BME280;67251;50.844;7.978;2023-04-03T07:23:08;100123.97;;;13.61;32.74
77877;BME280;67251;50.844;7.978;2023-04-03T07:25:33;100120.84;;;12.31;34.47
77877;BME280;67251;50.844;7.978;2023-04-03T07:27:59;100114.88;;;13.17;33.31
77877;BME280;67251;50.844;7.978;2023-04-03T07:30:24;100104.06;;;13.98;32.11
77877;BME280;67251;50.844;7.978;2023-04-03T07:32:50;100115.38;;;13.06;32.39
77877;BME280;67251;50.844;7.978;2023-04-03T07:35:16;100113.97;;;13.40;31.99
77877;BME280;67251;50.844;7.978;2023-04-03T07:37:42;100133.22;;;11.23;35.63
77877;BME280;67251;50.844;7.978;2023-04-03T07:40:08;100127.56;;;10.22;37.51
77877;BME280;67251;50.844;7.978;2023-04-03T07:42:34;100143.53;;;8.80;40.43
77877;BME280;67251;50.844;7.978;2023-04-03T07:45:00;100150.78;;;6.90;44.70
77877;BME280;67251;50.844;7.978;2023-04-03T07:47:26;100144.44;;;7.28;44.34
77877;BME280;67251;50.844;7.978;2023-04-03T07:49:52;100155.16;;;6.72;45.45
77877;BME280;67251;50.844;7.978;2023-04-03T07:52:17;100148.56;;;6.09;46.90
77877;BME280;67251;50.844;7.978;2023-04-03T07:54:43;100155.41;;;6.31;47.70
77877;BME280;67251;50.844;7.978;2023-04-03T07:57:09;100157.88;;;5.75;49.21
77877;BME280;67251;50.844;7.978;2023-04-03T07:59:34;100162.97;;;4.97;50.49
77877;BME280;67251;50.844;7.978;2023-04-03T08:02:00;100162.97;;;4.25;52.59
77877;BME280;67251;50.844;7.978;2023-04-03T08:04:26;100164.19;;;4.42;51.97
77877;BME280;67251;50.844;7.978;2023-04-03T08:06:52;100169.13;;;3.93;53.20
77877;BME280;67251;50.844;7.978;2023-04-03T08:09:18;100169.78;;;3.08;55.32
77877;BME280;67251;50.844;7.978;2023-04-03T08:11:44;100178.66;;;2.74;57.04
77877;BME280;67251;50.844;7.978;2023-04-03T08:14:10;100172.53;;;2.73;57.99
77877;BME280;67251;50.844;7.978;2023-04-03T08:16:41;100165.44;;;3.19;57.21
77877;BME280;67251;50.844;7.978;2023-04-03T08:19:06;100165.66;;;2.82;56.59
77877;BME280;67251;50.844;7.978;2023-04-03T08:21:33;100157.38;;;2.75;56.67
77877;BME280;67251;50.844;7.978;2023-04-03T08:23:58;100162.56;;;2.99;56.40
77877;BME280;67251;50.844;7.978;2023-04-03T08:26:23;100159.78;;;2.90;56.56
77877;BME280;67251;50.844;7.978;2023-04-03T08:28:49;100161.09;;;3.18;56.58
77877;BME280;67251;50.844;7.978;2023-04-03T08:31:17;100169.31;;;2.92;56.02
77877;BME280;67251;50.844;7.978;2023-04-03T08:33:44;100150.22;;;4.19;53.21
77877;BME280;67251;50.844;7.978;2023-04-03T08:36:36;100162.84;;;3.94;53.08
77877;BME280;67251;50.844;7.978;2023-04-03T08:39:01;100153.13;;;4.16;51.96
77877;BME280;67251;50.844;7.978;2023-04-03T08:44:11;100154.75;;;5.50;48.99
77877;BME280;67251;50.844;7.978;2023-04-03T08:49:30;100157.00;;;4.53;50.94
77877;BME280;67251;50.844;7.978;2023-04-03T08:51:59;100161.97;;;4.47;51.38
77877;BME280;67251;50.844;7.978;2023-04-03T08:54:37;100148.13;;;6.33;47.72
77877;BME280;67251;50.844;7.978;2023-04-03T08:57:06;100130.69;;;8.84;41.12
77877;BME280;67251;50.844;7.978;2023-04-03T08:59:37;100151.59;;;7.55;42.89
77877;BME280;67251;50.844;7.978;2023-04-03T09:02:39;100148.50;;;7.32;43.81
77877;BME280;67251;50.844;7.978;2023-04-03T09:05:02;100144.59;;;7.54;43.48
77877;BME280;67251;50.844;7.978;2023-04-03T09:07:36;100145.44;;;8.44;40.21
77877;BME280;67251;50.844;7.978;2023-04-03T09:10:05;100146.59;;;8.67;38.97
77877;BME280;67251;50.844;7.978;2023-04-03T09:12:38;100152.75;;;7.71;39.62
77877;BME280;67251;50.844;7.978;2023-04-03T09:20:22;100148.94;;;10.06;35.39
77877;BME280;67251;50.844;7.978;2023-04-03T09:22:50;100145.28;;;11.19;33.07
77877;BME280;67251;50.844;7.978;2023-04-03T09:25:27;100133.16;;;12.77;32.28
77877;BME280;67251;50.844;7.978;2023-04-03T09:27:56;100142.16;;;12.09;31.24
77877;BME280;67251;50.844;7.978;2023-04-03T09:30:24;100138.38;;;12.94;30.54
77877;BME280;67251;50.844;7.978;2023-04-03T09:32:52;100142.44;;;10.65;32.62
77877;BME280;67251;50.844;7.978;2023-04-03T09:35:31;100136.44;;;11.58;31.85
77877;BME280;67251;50.844;7.978;2023-04-03T09:40:39;100124.63;;;12.74;30.54
77877;BME280;67251;50.844;7.978;2023-04-03T09:45:44;100153.75;;;9.86;33.29
77877;BME280;67251;50.844;7.978;2023-04-03T09:56:02;100151.63;;;9.39;33.91
77877;BME280;67251;50.844;7.978;2023-04-03T09:58:31;100151.13;;;9.94;30.76
77877;BME280;67251;50.844;7.978;2023-04-03T10:01:00;100144.59;;;9.88;32.90
77877;BME280;67251;50.844;7.978;2023-04-03T10:03:36;100133.06;;;10.69;31.43
77877;BME280;67251;50.844;7.978;2023-04-03T10:06:21;100137.31;;;11.42;31.72
77877;BME280;67251;50.844;7.978;2023-04-03T10:08:59;100128.25;;;11.83;28.98
77877;BME280;67251;50.844;7.978;2023-04-03T10:11:26;100117.16;;;11.55;28.65
77877;BME280;67251;50.844;7.978;2023-04-03T10:14:02;100128.47;;;11.34;29.31
77877;BME280;67251;50.844;7.978;2023-04-03T10:16:35;100119.53;;;11.18;28.97
77877;BME280;67251;50.844;7.978;2023-04-03T10:19:19;100121.53;;;10.04;28.97
77877;BME280;67251;50.844;7.978;2023-04-03T10:21:55;100116.69;;;10.56;29.50
77877;BME280;67251;50.844;7.978;2023-04-03T10:41:04;100089.63;;;9.94;30.71
77877;BME280;67251;50.844;7.978;2023-04-03T10:46:23;100115.22;;;9.30;31.57
77877;BME280;67251;50.844;7.978;2023-04-03T10:54:46;100092.94;;;9.88;30.63
77877;BME280;67251;50.844;7.978;2023-04-03T10:57:14;100111.47;;;9.73;31.26
77877;BME280;67251;50.844;7.978;2023-04-03T11:02:24;100093.91;;;9.46;31.07
77877;BME280;67251;50.844;7.978;2023-04-03T11:04:55;100090.59;;;9.60;30.71
77877;BME280;67251;50.844;7.978;2023-04-03T11:07:26;100091.19;;;9.38;31.96
77877;BME280;67251;50.844;7.978;2023-04-03T11:10:02;100096.31;;;8.81;31.57
77877;BME280;67251;50.844;7.978;2023-04-03T11:12:51;100097.13;;;8.47;32.46
77877;BME280;67251;50.844;7.978;2023-04-03T11:15:19;100095.50;;;7.57;34.20
77877;BME280;67251;50.844;7.978;2023-04-03T11:17:59;100088.63;;;7.36;34.03
77877;BME280;67251;50.844;7.978;2023-04-03T11:20:29;100082.50;;;7.54;34.81
77877;BME280;67251;50.844;7.978;2023-04-03T11:23:25;100082.69;;;8.14;33.93
77877;BME280;67251;50.844;7.978;2023-04-03T11:26:00;100079.59;;;8.27;36.71
77877;BME280;67251;50.844;7.978;2023-04-03T11:28:29;100078.53;;;7.76;34.38
77877;BME280;67251;50.844;7.978;2023-04-03T11:31:26;100082.91;;;7.31;34.94
77877;BME280;67251;50.844;7.978;2023-04-03T11:34:02;100077.38;;;7.25;36.22
77877;BME280;67251;50.844;7.978;2023-04-03T11:36:33;100070.81;;;7.37;35.11
77877;BME280;67251;50.844;7.978;2023-04-03T11:39:27;100077.81;;;7.38;36.84
77877;BME280;67251;50.844;7.978;2023-04-03T11:41:54;100072.06;;;7.15;35.90
77877;BME280;67251;50.844;7.978;2023-04-03T11:44:37;100061.47;;;7.33;37.60
77877;BME280;67251;50.844;7.978;2023-04-03T11:47:05;100060.09;;;7.47;37.12
77877;BME280;67251;50.844;7.978;2023-04-03T11:49:59;100056.25;;;7.59;35.25
77877;BME280;67251;50.844;7.978;2023-04-03T12:32:26;100023.66;;;7.65;35.54
77877;BME280;67251;50.844;7.978;2023-04-03T12:43:18;100011.69;;;6.98;36.09
77877;BME280;67251;50.844;7.978;2023-04-03T12:48:38;100008.13;;;7.60;35.46
77877;BME280;67251;50.844;7.978;2023-04-03T12:51:05;100002.69;;;7.44;35.33
77877;BME280;67251;50.844;7.978;2023-04-03T12:53:33;100003.22;;;7.30;34.76
77877;BME280;67251;50.844;7.978;2023-04-03T12:56:29;100011.66;;;7.25;35.34
77877;BME280;67251;50.844;7.978;2023-04-03T12:59:12;99993.06;;;7.33;34.43
77877;BME280;67251;50.844;7.978;2023-04-03T13:01:38;99998.69;;;7.12;35.59
77877;BME280;67251;50.844;7.978;2023-04-03T13:04:04;99997.72;;;7.31;34.28
77877;BME280;67251;50.844;7.978;2023-04-03T13:06:48;99994.78;;;7.34;33.98
77877;BME280;67251;50.844;7.978;2023-04-03T13:09:25;99983.41;;;7.68;34.46
77877;BME280;67251;50.844;7.978;2023-04-03T13:12:07;99989.34;;;7.26;33.90
77877;BME280;67251;50.844;7.978;2023-04-03T13:14:36;99980.28;;;7.19;33.82
77877;BME280;67251;50.844;7.978;2023-04-03T13:17:14;99978.84;;;7.07;34.71
77877;BME280;67251;50.844;7.978;2023-04-03T13:19:41;99987.84;;;7.06;35.06
77877;BME280;67251;50.844;7.978;2023-04-03T13:22:30;99980.53;;;7.43;34.23
77877;BME280;67251;50.844;7.978;2023-04-03T13:25:03;99993.34;;;7.84;34.55
77877;BME280;67251;50.844;7.978;2023-04-03T13:27:31;99969.91;;;7.69;34.59
77877;BME280;67251;50.844;7.978;2023-04-03T13:29:59;99975.06;;;7.27;34.76
77877;BME280;67251;50.844;7.978;2023-04-03T13:32:26;99982.25;;;6.99;35.31
77877;BME280;67251;50.844;7.978;2023-04-03T13:34:53;99974.38;;;7.07;36.25
77877;BME280;67251;50.844;7.978;2023-04-03T13:37:29;99970.03;;;7.06;33.75
77877;BME280;67251;50.844;7.978;2023-04-03T13:40:21;99977.41;;;7.12;33.51
77877;BME280;67251;50.844;7.978;2023-04-03T13:43:00;99979.47;;;7.18;34.28
77877;BME280;67251;50.844;7.978;2023-04-03T13:45:28;99985.00;;;7.07;34.95
77877;BME280;67251;50.844;7.978;2023-04-03T13:48:17;99966.38;;;7.07;33.86
77877;BME280;67251;50.844;7.978;2023-04-03T13:51:00;99966.06;;;7.28;33.69
77877;BME280;67251;50.844;7.978;2023-04-03T13:53:28;99962.72;;;7.08;33.75
77877;BME280;67251;50.844;7.978;2023-04-03T13:55:58;99967.75;;;6.94;33.59
77877;BME280;67251;50.844;7.978;2023-04-03T13:58:27;99961.47;;;6.85;34.48
77877;BME280;67251;50.844;7.978;2023-04-03T14:01:00;99946.59;;;7.10;34.91
77877;BME280;67251;50.844;7.978;2023-04-03T14:03:47;99943.47;;;7.32;35.03
77877;BME280;67251;50.844;7.978;2023-04-03T14:06:15;99949.94;;;7.48;34.80
77877;BME280;67251;50.844;7.978;2023-04-03T14:08:42;99950.78;;;7.30;34.90
77877;BME280;67251;50.844;7.978;2023-04-03T14:11:18;99939.16;;;6.96;36.42
77877;BME280;67251;50.844;7.978;2023-04-03T14:13:44;99936.28;;;7.07;35.40
77877;BME280;67251;50.844;7.978;2023-04-03T14:16:23;99937.16;;;7.51;36.32
77877;BME280;67251;50.844;7.978;2023-04-03T14:18:50;99925.41;;;7.62;36.15
77877;BME280;67251;50.844;7.978;2023-04-03T14:21:17;99939.19;;;7.57;36.15
77877;BME280;67251;50.844;7.978;2023-04-03T14:23:43;99932.06;;;7.40;36.10
77877;BME280;67251;50.844;7.978;2023-04-03T14:26:12;99933.91;;;7.22;36.46
77877;BME280;67251;50.844;7.978;2023-04-03T14:28:38;99932.38;;;6.83;35.27
77877;BME280;67251;50.844;7.978;2023-04-03T14:31:05;99938.84;;;6.53;36.25
77877;BME280;67251;50.844;7.978;2023-04-03T14:33:30;99937.66;;;6.65;35.91
77877;BME280;67251;50.844;7.978;2023-04-03T14:36:00;99925.91;;;6.86;35.51
77877;BME280;67251;50.844;7.978;2023-04-03T14:38:29;99930.38;;;6.68;35.90
77877;BME280;67251;50.844;7.978;2023-04-03T14:40:56;99932.69;;;6.53;35.33
77877;BME280;67251;50.844;7.978;2023-04-03T14:43:22;99928.44;;;6.42;35.45
77877;BME280;67251;50.844;7.978;2023-04-03T14:45:48;99920.63;;;6.58;35.46
77877;BME280;67251;50.844;7.978;2023-04-03T14:48:25;99924.66;;;6.35;36.13
77877;BME280;67251;50.844;7.978;2023-04-03T14:50:52;99917.38;;;6.09;36.05
77877;BME280;67251;50.844;7.978;2023-04-03T14:53:18;99925.88;;;6.23;37.61
77877;BME280;67251;50.844;7.978;2023-04-03T14:55:48;99925.59;;;6.16;38.31
77877;BME280;67251;50.844;7.978;2023-04-03T14:58:16;99911.00;;;6.30;36.80